sensor_id;sensor_type;location;lat;lon;timestamp;pressure;altitude;pressure_sealevel;temperature;humidity
77003;BME280;65939;50.060;14.288;2023-01-15T00:01:49;96196.44;;;7.68;82.90
77003;BME280;65939;50.060;14.288;2023-01-15T00:03:51;96201.63;;;7.68;82.48
77003;BME280;65939;50.060;14.288;2023-01-15T00:05:53;96200.66;;;7.70;82.26
77003;BME280;65939;50.060;14.288;2023-01-15T00:07:53;96198.84;;;7.70;82.91
77003;BME280;65939;50.060;14.288;2023-01-15T00:09:54;96189.94;;;7.73;82.48
77003;BME280;65939;50.060;14.288;2023-01-15T00:11:55;96185.69;;;7.72;82.17
77003;BME280;65939;50.060;14.288;2023-01-15T00:13:56;96181.16;;;7.74;82.93
77003;BME280;65939;50.060;14.288;2023-01-15T00:16:07;96178.38;;;7.75;82.23
77003;BME280;65939;50.060;14.288;2023-01-15T00:18:09;96170.44;;;7.77;82.31
77003;BME280;65939;50.060;14.288;2023-01-15T00:20:10;96165.88;;;7.79;82.81
77003;BME280;65939;50.060;14.288;2023-01-15T00:22:11;96165.88;;;7.79;82.11
77003;BME280;65939;50.060;14.288;2023-01-15T00:24:12;96162.31;;;7.80;83.01
77003;BME280;65939;50.060;14.288;2023-01-15T00:26:32;96171.53;;;7.82;82.24
77003;BME280;65939;50.060;14.288;2023-01-15T00:28:51;96153.03;;;7.85;83.47
77003;BME280;65939;50.060;14.288;2023-01-15T00:30:52;96159.69;;;7.88;83.06
77003;BME280;65939;50.060;14.288;2023-01-15T00:32:52;96160.34;;;7.90;82.94
77003;BME280;65939;50.060;14.288;2023-01-15T00:34:53;96153.16;;;7.92;82.38
77003;BME280;65939;50.060;14.288;2023-01-15T00:36:54;96154.63;;;7.95;82.84
77003;BME280;65939;50.060;14.288;2023-01-15T00:38:54;96151.72;;;7.98;82.54
77003;BME280;65939;50.060;14.288;2023-01-15T00:40:55;96146.97;;;8.01;82.33
77003;BME280;65939;50.060;14.288;2023-01-15T00:42:56;96150.88;;;8.05;82.65
77003;BME280;65939;50.060;14.288;2023-01-15T00:44:56;96147.13;;;8.08;82.49
77003;BME280;65939;50.060;14.288;2023-01-15T00:46:57;96150.34;;;8.10;82.90
77003;BME280;65939;50.060;14.288;2023-01-15T00:48:58;96149.03;;;8.14;82.57
77003;BME280;65939;50.060;14.288;2023-01-15T00:50:58;96145.47;;;8.15;82.96
77003;BME280;65939;50.060;14.288;2023-01-15T00:52:59;96145.09;;;8.18;82.44
77003;BME280;65939;50.060;14.288;2023-01-15T00:55:00;96139.56;;;8.21;82.76
77003;BME280;65939;50.060;14.288;2023-01-15T00:57:00;96135.03;;;8.23;82.12
77003;BME280;65939;50.060;14.288;2023-01-15T00:59:03;96141.84;;;8.24;82.90
77003;BME280;65939;50.060;14.288;2023-01-15T01:01:04;96135.50;;;8.27;82.90
77003;BME280;65939;50.060;14.288;2023-01-15T01:03:05;96132.91;;;8.27;82.79
77003;BME280;65939;50.060;14.288;2023-01-15T01:05:06;96127.53;;;8.28;82.90
77003;BME280;65939;50.060;14.288;2023-01-15T01:07:07;96129.16;;;8.29;82.32
77003;BME280;65939;50.060;14.288;2023-01-15T01:09:12;96122.16;;;8.30;82.26
77003;BME280;65939;50.060;14.288;2023-01-15T01:11:17;96121.97;;;8.31;82.83
77003;BME280;65939;50.060;14.288;2023-01-15T01:13:18;96122.63;;;8.33;82.80
77003;BME280;65939;50.060;14.288;2023-01-15T01:15:20;96110.44;;;8.34;83.12
77003;BME280;65939;50.060;14.288;2023-01-15T01:17:21;96109.44;;;8.35;82.86
77003;BME280;65939;50.060;14.288;2023-01-15T01:19:23;96114.34;;;8.38;82.96
77003;BME280;65939;50.060;14.288;2023-01-15T01:21:25;96113.03;;;8.42;82.79
77003;BME280;65939;50.060;14.288;2023-01-15T01:23:26;96112.88;;;8.44;82.47
77003;BME280;65939;50.060;14.288;2023-01-15T01:25:27;96120.16;;;8.48;82.83
77003;BME280;65939;50.060;14.288;2023-01-15T01:27:27;96123.41;;;8.50;82.45
77003;BME280;65939;50.060;14.288;2023-01-15T01:29:28;96130.69;;;8.55;82.56
77003;BME280;65939;50.060;14.288;2023-01-15T01:31:29;96124.16;;;8.59;82.86
77003;BME280;65939;50.060;14.288;2023-01-15T01:33:29;96121.34;;;8.60;82.70
77003;BME280;65939;50.060;14.288;2023-01-15T01:35:30;96117.47;;;8.65;81.88
77003;BME280;65939;50.060;14.288;2023-01-15T01:37:31;96109.66;;;8.65;81.60
77003;BME280;65939;50.060;14.288;2023-01-15T01:39:31;96100.66;;;8.67;82.23
77003;BME280;65939;50.060;14.288;2023-01-15T01:41:34;96097.09;;;8.68;82.01
77003;BME280;65939;50.060;14.288;2023-01-15T01:45:52;96092.72;;;8.69;81.53
77003;BME280;65939;50.060;14.288;2023-01-15T01:47:58;96089.31;;;8.68;82.08
77003;BME280;65939;50.060;14.288;2023-01-15T01:50:05;96088.31;;;8.69;81.67
77003;BME280;65939;50.060;14.288;2023-01-15T01:52:13;96087.31;;;8.70;81.90
77003;BME280;65939;50.060;14.288;2023-01-15T01:54:20;96083.56;;;8.73;81.67
77003;BME280;65939;50.060;14.288;2023-01-15T01:56:22;96087.78;;;8.74;81.85
77003;BME280;65939;50.060;14.288;2023-01-15T01:58:27;96084.19;;;8.75;81.93
77003;BME280;65939;50.060;14.288;2023-01-15T02:00:32;96084.19;;;8.75;81.36
77003;BME280;65939;50.060;14.288;2023-01-15T02:02:34;96079.63;;;8.77;81.23
77003;BME280;65939;50.060;14.288;2023-01-15T02:04:36;96075.41;;;8.76;81.85
77003;BME280;65939;50.060;14.288;2023-01-15T02:06:40;96070.84;;;8.78;81.86
77003;BME280;65939;50.060;14.288;2023-01-15T02:08:42;96075.22;;;8.77;81.26
77003;BME280;65939;50.060;14.288;2023-01-15T02:10:45;96071.63;;;8.78;81.20
77003;BME280;65939;50.060;14.288;2023-01-15T02:12:58;96070.69;;;8.79;81.59
77003;BME280;65939;50.060;14.288;2023-01-15T02:15:06;96066.91;;;8.82;81.03
77003;BME280;65939;50.060;14.288;2023-01-15T02:17:20;96058.13;;;8.83;81.02
77003;BME280;65939;50.060;14.288;2023-01-15T02:19:49;96058.75;;;8.85;80.98
77003;BME280;65939;50.060;14.288;2023-01-15T02:22:08;96055.78;;;8.88;81.06
77003;BME280;65939;50.060;14.288;2023-01-15T02:28:56;96053.13;;;8.96;80.92
77003;BME280;65939;50.060;14.288;2023-01-15T02:33:36;96046.66;;;9.07;81.65
77003;BME280;65939;50.060;14.288;2023-01-15T02:35:46;96041.56;;;9.14;81.17
77003;BME280;65939;50.060;14.288;2023-01-15T02:37:58;96050.28;;;9.21;81.41
77003;BME280;65939;50.060;14.288;2023-01-15T02:40:02;96032.50;;;9.24;81.16
77003;BME280;65939;50.060;14.288;2023-01-15T02:42:08;96031.16;;;9.28;81.53
77003;BME280;65939;50.060;14.288;2023-01-15T02:44:13;96040.44;;;9.31;80.96
77003;BME280;65939;50.060;14.288;2023-01-15T02:46:18;96037.66;;;9.32;81.29
77003;BME280;65939;50.060;14.288;2023-01-15T02:48:25;96027.84;;;9.34;81.17
77003;BME280;65939;50.060;14.288;2023-01-15T02:50:36;96031.72;;;9.39;80.94
77003;BME280;65939;50.060;14.288;2023-01-15T02:52:45;96027.94;;;9.41;81.32
77003;BME280;65939;50.060;14.288;2023-01-15T02:54:54;96024.34;;;9.42;81.16
77003;BME280;65939;50.060;14.288;2023-01-15T02:57:01;96032.63;;;9.46;81.12
77003;BME280;65939;50.060;14.288;2023-01-15T02:59:09;96028.25;;;9.46;80.76
77003;BME280;65939;50.060;14.288;2023-01-15T03:01:16;96027.06;;;9.49;80.96
77003;BME280;65939;50.060;14.288;2023-01-15T03:05:42;96012.22;;;9.49;80.74
77003;BME280;65939;50.060;14.288;2023-01-15T03:07:56;96013.22;;;9.48;80.35
77003;BME280;65939;50.060;14.288;2023-01-15T03:09:59;96015.66;;;9.50;80.77
77003;BME280;65939;50.060;14.288;2023-01-15T03:12:22;96017.28;;;9.51;80.85
77003;BME280;65939;50.060;14.288;2023-01-15T03:14:43;96008.28;;;9.53;81.45
77003;BME280;65939;50.060;14.288;2023-01-15T03:16:54;95996.06;;;9.54;81.04
77003;BME280;65939;50.060;14.288;2023-01-15T03:21:32;95991.66;;;9.54;81.33
77003;BME280;65939;50.060;14.288;2023-01-15T03:23:42;95990.06;;;9.53;81.17
77003;BME280;65939;50.060;14.288;2023-01-15T03:25:48;95982.25;;;9.53;81.10
77003;BME280;65939;50.060;14.288;2023-01-15T03:27:52;95983.03;;;9.54;80.67
77003;BME280;65939;50.060;14.288;2023-01-15T03:30:10;95985.66;;;9.54;80.56
77003;BME280;65939;50.060;14.288;2023-01-15T03:32:12;95978.63;;;9.54;80.67
77003;BME280;65939;50.060;14.288;2023-01-15T03:34:13;95978.63;;;9.54;80.06
77003;BME280;65939;50.060;14.288;2023-01-15T03:36:13;95972.44;;;9.55;80.10
77003;BME280;65939;50.060;14.288;2023-01-15T03:38:19;95973.22;;;9.56;80.31
77003;BME280;65939;50.060;14.288;2023-01-15T03:40:21;95971.44;;;9.56;79.88
77003;BME280;65939;50.060;14.288;2023-01-15T03:45:27;95972.06;;;9.58;79.59
77003;BME280;65939;50.060;14.288;2023-01-15T03:57:06;95950.31;;;9.66;77.91
77003;BME280;65939;50.060;14.288;2023-01-15T03:59:16;95943.94;;;9.69;77.53
77003;BME280;65939;50.060;14.288;2023-01-15T04:01:26;95942.94;;;9.70;77.24
77003;BME280;65939;50.060;14.288;2023-01-15T04:03:31;95941.75;;;9.72;77.06
77003;BME280;65939;50.060;14.288;2023-01-15T04:05:35;95937.34;;;9.73;77.06
77003;BME280;65939;50.060;14.288;2023-01-15T04:07:37;95929.53;;;9.73;76.59
77003;BME280;65939;50.060;14.288;2023-01-15T04:09:39;95920.72;;;9.74;76.70
77003;BME280;65939;50.060;14.288;2023-01-15T04:11:40;95927.38;;;9.76;76.65
77003;BME280;65939;50.060;14.288;2023-01-15T04:13:41;95934.03;;;9.79;76.72
77003;BME280;65939;50.060;14.288;2023-01-15T04:15:41;95927.00;;;9.79;76.62
77003;BME280;65939;50.060;14.288;2023-01-15T04:17:42;95921.78;;;9.79;76.50
77003;BME280;65939;50.060;14.288;2023-01-15T04:19:42;95928.81;;;9.79;76.61
77003;BME280;65939;50.060;14.288;2023-01-15T04:21:43;95928.81;;;9.79;76.96
77003;BME280;65939;50.060;14.288;2023-01-15T04:23:44;95913.53;;;9.76;76.88
77003;BME280;65939;50.060;14.288;2023-01-15T04:25:45;95911.94;;;9.75;76.51
77003;BME280;65939;50.060;14.288;2023-01-15T04:27:46;95905.09;;;9.74;76.12
77003;BME280;65939;50.060;14.288;2023-01-15T04:29:46;95914.69;;;9.73;75.87
77003;BME280;65939;50.060;14.288;2023-01-15T04:31:47;95913.91;;;9.73;75.88
77003;BME280;65939;50.060;14.288;2023-01-15T04:33:51;95907.09;;;9.72;75.54
77003;BME280;65939;50.060;14.288;2023-01-15T04:35:52;95906.09;;;9.73;75.83
77003;BME280;65939;50.060;14.288;2023-01-15T04:37:54;95909.69;;;9.72;75.58
77003;BME280;65939;50.060;14.288;2023-01-15T04:39:55;95906.28;;;9.71;75.64
77003;BME280;65939;50.060;14.288;2023-01-15T04:41:55;95907.44;;;9.69;75.67
77003;BME280;65939;50.060;14.288;2023-01-15T04:44:14;95909.41;;;9.67;75.93
77003;BME280;65939;50.060;14.288;2023-01-15T04:46:20;95894.16;;;9.64;75.49
77003;BME280;65939;50.060;14.288;2023-01-15T04:48:21;95913.38;;;9.63;75.93
77003;BME280;65939;50.060;14.288;2023-01-15T04:50:22;95908.16;;;9.63;75.97
77003;BME280;65939;50.060;14.288;2023-01-15T04:52:22;95906.72;;;9.60;75.55
77003;BME280;65939;50.060;14.288;2023-01-15T04:54:23;95907.72;;;9.59;76.02
77003;BME280;65939;50.060;14.288;2023-01-15T04:56:24;95903.69;;;9.56;75.79
77003;BME280;65939;50.060;14.288;2023-01-15T04:58:24;95897.88;;;9.54;75.92
77003;BME280;65939;50.060;14.288;2023-01-15T05:00:25;95894.63;;;9.52;76.86
77003;BME280;65939;50.060;14.288;2023-01-15T05:02:25;95902.81;;;9.49;77.26
77003;BME280;65939;50.060;14.288;2023-01-15T05:04:26;95904.00;;;9.47;77.41
77003;BME280;65939;50.060;14.288;2023-01-15T05:06:28;95892.94;;;9.45;77.49
77003;BME280;65939;50.060;14.288;2023-01-15T05:08:30;95901.13;;;9.42;77.64
77003;BME280;65939;50.060;14.288;2023-01-15T05:10:31;95898.88;;;9.39;77.80
77003;BME280;65939;50.060;14.288;2023-01-15T05:12:32;95896.63;;;9.35;77.46
77003;BME280;65939;50.060;14.288;2023-01-15T05:14:32;95893.22;;;9.35;77.32
77003;BME280;65939;50.060;14.288;2023-01-15T05:16:34;95888.38;;;9.32;77.85
77003;BME280;65939;50.060;14.288;2023-01-15T05:18:34;95884.97;;;9.31;77.42
77003;BME280;65939;50.060;14.288;2023-01-15T05:20:36;95892.16;;;9.29;77.92
77003;BME280;65939;50.060;14.288;2023-01-15T05:22:37;95888.75;;;9.29;77.57
77003;BME280;65939;50.060;14.288;2023-01-15T05:24:37;95884.72;;;9.26;77.89
77003;BME280;65939;50.060;14.288;2023-01-15T05:26:39;95882.13;;;9.26;78.00
77003;BME280;65939;50.060;14.288;2023-01-15T05:28:39;95876.09;;;9.26;77.90
77003;BME280;65939;50.060;14.288;2023-01-15T05:30:40;95878.72;;;9.26;77.52
77003;BME280;65939;50.060;14.288;2023-01-15T05:32:41;95883.13;;;9.25;78.30
77003;BME280;65939;50.060;14.288;2023-01-15T05:34:41;95884.88;;;9.25;78.12
77003;BME280;65939;50.060;14.288;2023-01-15T05:36:42;95881.13;;;9.27;78.09
77003;BME280;65939;50.060;14.288;2023-01-15T05:38:43;95881.91;;;9.28;78.30
77003;BME280;65939;50.060;14.288;2023-01-15T05:40:44;95881.91;;;9.28;77.87
77003;BME280;65939;50.060;14.288;2023-01-15T05:42:44;95880.94;;;9.29;77.62
77003;BME280;65939;50.060;14.288;2023-01-15T05:44:45;95873.13;;;9.29;78.20
77003;BME280;65939;50.060;14.288;2023-01-15T05:46:47;95874.75;;;9.30;77.81
77003;BME280;65939;50.060;14.288;2023-01-15T05:48:48;95876.53;;;9.29;77.48
77003;BME280;65939;50.060;14.288;2023-01-15T05:50:49;95867.94;;;9.29;78.03
77003;BME280;65939;50.060;14.288;2023-01-15T05:52:49;95871.13;;;9.31;77.63
77003;BME280;65939;50.060;14.288;2023-01-15T05:54:50;95867.72;;;9.30;77.14
77003;BME280;65939;50.060;14.288;2023-01-15T05:56:51;95883.56;;;9.29;77.79
77003;BME280;65939;50.060;14.288;2023-01-15T05:58:52;95861.28;;;9.26;77.96
77003;BME280;65939;50.060;14.288;2023-01-15T06:00:53;95870.53;;;9.29;77.68
77003;BME280;65939;50.060;14.288;2023-01-15T06:02:55;95872.13;;;9.30;77.36
77003;BME280;65939;50.060;14.288;2023-01-15T06:04:55;95873.31;;;9.27;77.40
77003;BME280;65939;50.060;14.288;2023-01-15T06:06:57;95865.84;;;9.24;77.11
77003;BME280;65939;50.060;14.288;2023-01-15T06:08:58;95867.03;;;9.22;77.38
77003;BME280;65939;50.060;14.288;2023-01-15T06:10:58;95857.59;;;9.21;77.61
77003;BME280;65939;50.060;14.288;2023-01-15T06:12:59;95856.63;;;9.22;77.69
77003;BME280;65939;50.060;14.288;2023-01-15T06:15:00;95845.38;;;9.21;77.56
77003;BME280;65939;50.060;14.288;2023-01-15T06:17:00;95852.59;;;9.19;77.54
77003;BME280;65939;50.060;14.288;2023-01-15T06:19:03;95853.38;;;9.20;77.67
77003;BME280;65939;50.060;14.288;2023-01-15T06:21:10;95843.97;;;9.19;77.63
77003;BME280;65939;50.060;14.288;2023-01-15T06:23:11;95836.16;;;9.19;77.94
77003;BME280;65939;50.060;14.288;2023-01-15T06:25:11;95849.19;;;9.19;77.64
77003;BME280;65939;50.060;14.288;2023-01-15T06:27:12;95844.78;;;9.19;77.97
77003;BME280;65939;50.060;14.288;2023-01-15T06:29:13;95846.56;;;9.19;77.68
77003;BME280;65939;50.060;14.288;2023-01-15T06:31:20;95844.94;;;9.18;77.88
77003;BME280;65939;50.060;14.288;2023-01-15T06:33:21;95841.38;;;9.19;77.61
77003;BME280;65939;50.060;14.288;2023-01-15T06:35:21;95845.56;;;9.20;77.93
77003;BME280;65939;50.060;14.288;2023-01-15T06:37:22;95829.94;;;9.20;78.24
77003;BME280;65939;50.060;14.288;2023-01-15T06:39:22;95837.56;;;9.21;77.83
77003;BME280;65939;50.060;14.288;2023-01-15T06:41:25;95837.56;;;9.21;77.64
77003;BME280;65939;50.060;14.288;2023-01-15T06:43:44;95840.16;;;9.21;77.58
77003;BME280;65939;50.060;14.288;2023-01-15T06:46:03;95844.41;;;9.22;77.91
77003;BME280;65939;50.060;14.288;2023-01-15T06:48:25;95841.81;;;9.22;77.75
77003;BME280;65939;50.060;14.288;2023-01-15T06:50:25;95836.59;;;9.22;77.95
77003;BME280;65939;50.060;14.288;2023-01-15T06:52:28;95835.78;;;9.22;77.67
77003;BME280;65939;50.060;14.288;2023-01-15T06:54:29;95841.81;;;9.22;78.12
77003;BME280;65939;50.060;14.288;2023-01-15T06:56:29;95838.41;;;9.22;77.63
77003;BME280;65939;50.060;14.288;2023-01-15T06:58:30;95825.38;;;9.22;77.69
77003;BME280;65939;50.060;14.288;2023-01-15T07:00:31;95827.59;;;9.25;78.38
77003;BME280;65939;50.060;14.288;2023-01-15T07:02:31;95828.59;;;9.24;77.65
77003;BME280;65939;50.060;14.288;2023-01-15T07:04:32;95825.00;;;9.25;77.99
77003;BME280;65939;50.060;14.288;2023-01-15T07:06:32;95842.41;;;9.24;78.25
77003;BME280;65939;50.060;14.288;2023-01-15T07:08:34;95839.63;;;9.26;77.70
77003;BME280;65939;50.060;14.288;2023-01-15T07:10:34;95843.84;;;9.27;78.08
77003;BME280;65939;50.060;14.288;2023-01-15T07:12:35;95846.47;;;9.27;77.69
77003;BME280;65939;50.060;14.288;2023-01-15T07:14:36;95839.44;;;9.27;78.38
77003;BME280;65939;50.060;14.288;2023-01-15T07:16:36;95840.25;;;9.28;77.85
77003;BME280;65939;50.060;14.288;2023-01-15T07:18:37;95847.91;;;9.29;78.16
77003;BME280;65939;50.060;14.288;2023-01-15T07:20:38;95845.28;;;9.29;78.14
77003;BME280;65939;50.060;14.288;2023-01-15T07:22:38;95840.88;;;9.30;77.84
77003;BME280;65939;50.060;14.288;2023-01-15T07:24:39;95841.69;;;9.30;78.10
77003;BME280;65939;50.060;14.288;2023-01-15T07:26:41;95836.47;;;9.30;77.52
77003;BME280;65939;50.060;14.288;2023-01-15T07:28:42;95838.28;;;9.30;78.00
77003;BME280;65939;50.060;14.288;2023-01-15T07:30:43;95844.09;;;9.32;78.19
77003;BME280;65939;50.060;14.288;2023-01-15T07:32:43;95834.69;;;9.31;77.73
77003;BME280;65939;50.060;14.288;2023-01-15T07:34:44;95841.50;;;9.32;77.84
77003;BME280;65939;50.060;14.288;2023-01-15T07:36:45;95838.72;;;9.33;77.77
77003;BME280;65939;50.060;14.288;2023-01-15T07:38:46;95832.72;;;9.33;77.77
77003;BME280;65939;50.060;14.288;2023-01-15T07:40:47;95837.56;;;9.36;77.73
77003;BME280;65939;50.060;14.288;2023-01-15T07:43:09;95833.94;;;9.37;76.91
77003;BME280;65939;50.060;14.288;2023-01-15T07:45:28;95830.97;;;9.40;77.26
77003;BME280;65939;50.060;14.288;2023-01-15T07:47:48;95825.56;;;9.42;77.64
77003;BME280;65939;50.060;14.288;2023-01-15T07:50:11;95827.22;;;9.43;76.81
77003;BME280;65939;50.060;14.288;2023-01-15T07:52:16;95825.22;;;9.45;77.17
77003;BME280;65939;50.060;14.288;2023-01-15T07:54:16;95808.59;;;9.46;77.26
77003;BME280;65939;50.060;14.288;2023-01-15T07:56:17;95807.41;;;9.48;76.76
77003;BME280;65939;50.060;14.288;2023-01-15T07:58:18;95813.06;;;9.52;77.07
77003;BME280;65939;50.060;14.288;2023-01-15T08:00:21;95804.06;;;9.54;76.66
77003;BME280;65939;50.060;14.288;2023-01-15T08:02:22;95794.25;;;9.56;76.33
77003;BME280;65939;50.060;14.288;2023-01-15T08:04:23;95801.72;;;9.59;76.72
77003;BME280;65939;50.060;14.288;2023-01-15T08:06:23;95796.50;;;9.59;76.28
77003;BME280;65939;50.060;14.288;2023-01-15T08:08:24;95799.53;;;9.63;76.33
77003;BME280;65939;50.060;14.288;2023-01-15T08:10:24;95796.75;;;9.65;76.12
77003;BME280;65939;50.060;14.288;2023-01-15T08:12:25;95801.78;;;9.66;76.09
77003;BME280;65939;50.060;14.288;2023-01-15T08:14:44;95804.00;;;9.69;75.41
77003;BME280;65939;50.060;14.288;2023-01-15T08:17:03;95797.44;;;9.73;75.97
77003;BME280;65939;50.060;14.288;2023-01-15T08:19:05;95799.22;;;9.73;75.50
77003;BME280;65939;50.060;14.288;2023-01-15T08:21:05;95806.84;;;9.74;76.21
77003;BME280;65939;50.060;14.288;2023-01-15T08:23:06;95798.22;;;9.74;75.73
77003;BME280;65939;50.060;14.288;2023-01-15T08:25:09;95806.69;;;9.76;75.75
77003;BME280;65939;50.060;14.288;2023-01-15T08:27:11;95796.06;;;9.77;75.55
77003;BME280;65939;50.060;14.288;2023-01-15T08:29:13;95807.28;;;9.78;75.63
77003;BME280;65939;50.060;14.288;2023-01-15T08:31:15;95802.69;;;9.80;75.74
77003;BME280;65939;50.060;14.288;2023-01-15T08:33:15;95803.34;;;9.82;75.29
77003;BME280;65939;50.060;14.288;2023-01-15T08:35:16;95789.09;;;9.84;75.69
77003;BME280;65939;50.060;14.288;2023-01-15T08:37:19;95800.31;;;9.85;75.22
77003;BME280;65939;50.060;14.288;2023-01-15T08:39:23;95804.19;;;9.89;75.33
77003;BME280;65939;50.060;14.288;2023-01-15T08:41:24;95807.41;;;9.91;75.30
77003;BME280;65939;50.060;14.288;2023-01-15T08:43:29;95812.88;;;9.96;75.19
77003;BME280;65939;50.060;14.288;2023-01-15T08:45:30;95801.44;;;9.97;75.16
77003;BME280;65939;50.060;14.288;2023-01-15T08:47:31;95807.91;;;10.01;75.25
77003;BME280;65939;50.060;14.288;2023-01-15T08:49:32;95800.69;;;10.03;75.56
77003;BME280;65939;50.060;14.288;2023-01-15T08:51:33;95803.75;;;10.07;75.83
77003;BME280;65939;50.060;14.288;2023-01-15T08:53:35;95806.16;;;10.08;75.47
77003;BME280;65939;50.060;14.288;2023-01-15T08:55:39;95813.16;;;10.08;75.15
77003;BME280;65939;50.060;14.288;2023-01-15T08:57:40;95810.97;;;10.12;75.18
77003;BME280;65939;50.060;14.288;2023-01-15T08:59:41;95804.97;;;10.11;75.29
77003;BME280;65939;50.060;14.288;2023-01-15T09:01:42;95802.16;;;10.13;75.17
77003;BME280;65939;50.060;14.288;2023-01-15T09:03:44;95805.56;;;10.13;75.35
77003;BME280;65939;50.060;14.288;2023-01-15T09:05:45;95800.19;;;10.15;74.43
77003;BME280;65939;50.060;14.288;2023-01-15T09:07:46;95793.97;;;10.16;74.88
77003;BME280;65939;50.060;14.288;2023-01-15T09:09:46;95791.16;;;10.17;74.67
77003;BME280;65939;50.060;14.288;2023-01-15T09:11:47;95796.38;;;10.17;74.95
77003;BME280;65939;50.060;14.288;2023-01-15T09:13:50;95798.81;;;10.19;74.76
77003;BME280;65939;50.060;14.288;2023-01-15T09:15:51;95786.34;;;10.21;74.20
77003;BME280;65939;50.060;14.288;2023-01-15T09:17:53;95791.41;;;10.22;74.95
77003;BME280;65939;50.060;14.288;2023-01-15T09:19:54;95785.97;;;10.24;74.56
77003;BME280;65939;50.060;14.288;2023-01-15T09:21:57;95789.25;;;10.26;74.26
77003;BME280;65939;50.060;14.288;2023-01-15T09:23:58;95789.84;;;10.28;74.39
77003;BME280;65939;50.060;14.288;2023-01-15T09:26:04;95790.47;;;10.30;74.05
77003;BME280;65939;50.060;14.288;2023-01-15T09:28:06;95791.69;;;10.34;74.20
77003;BME280;65939;50.060;14.288;2023-01-15T09:30:09;95780.88;;;10.37;74.85
77003;BME280;65939;50.060;14.288;2023-01-15T09:32:10;95778.91;;;10.39;74.21
77003;BME280;65939;50.060;14.288;2023-01-15T09:34:11;95782.13;;;10.41;73.70
77003;BME280;65939;50.060;14.288;2023-01-15T09:36:16;95774.91;;;10.43;73.96
77003;BME280;65939;50.060;14.288;2023-01-15T09:38:19;95773.91;;;10.44;73.75
77003;BME280;65939;50.060;14.288;2023-01-15T09:42:56;95772.91;;;10.45;74.43
77003;BME280;65939;50.060;14.288;2023-01-15T09:45:21;95768.31;;;10.47;73.95
77003;BME280;65939;50.060;14.288;2023-01-15T09:47:33;95771.53;;;10.49;73.70
77003;BME280;65939;50.060;14.288;2023-01-15T09:49:59;95765.31;;;10.50;73.29
77003;BME280;65939;50.060;14.288;2023-01-15T09:54:48;95766.13;;;10.51;73.73
77003;BME280;65939;50.060;14.288;2023-01-15T09:57:11;95769.53;;;10.51;73.58
77003;BME280;65939;50.060;14.288;2023-01-15T09:59:33;95764.31;;;10.51;73.39
77003;BME280;65939;50.060;14.288;2023-01-15T10:01:36;95763.72;;;10.49;73.77
77003;BME280;65939;50.060;14.288;2023-01-15T10:04:15;95754.88;;;10.50;73.67
77003;BME280;65939;50.060;14.288;2023-01-15T10:06:27;95759.69;;;10.47;73.66
77003;BME280;65939;50.060;14.288;2023-01-15T10:08:37;95759.69;;;10.47;73.25
77003;BME280;65939;50.060;14.288;2023-01-15T10:11:04;95753.84;;;10.45;74.12
77003;BME280;65939;50.060;14.288;2023-01-15T10:13:32;95764.09;;;10.46;73.91
77003;BME280;65939;50.060;14.288;2023-01-15T10:15:58;95771.94;;;10.46;74.22
77003;BME280;65939;50.060;14.288;2023-01-15T10:18:01;95767.69;;;10.45;74.18
77003;BME280;65939;50.060;14.288;2023-01-15T10:20:02;95777.31;;;10.45;74.11
77003;BME280;65939;50.060;14.288;2023-01-15T10:24:52;95772.47;;;10.42;75.18
77003;BME280;65939;50.060;14.288;2023-01-15T10:26:57;95777.91;;;10.40;75.84
77003;BME280;65939;50.060;14.288;2023-01-15T10:29:05;95783.28;;;10.39;76.05
77003;BME280;65939;50.060;14.288;2023-01-15T10:31:19;95781.09;;;10.36;76.85
77003;BME280;65939;50.060;14.288;2023-01-15T10:35:44;95775.44;;;10.32;76.96
77003;BME280;65939;50.060;14.288;2023-01-15T10:38:12;95777.22;;;10.31;77.23
77003;BME280;65939;50.060;14.288;2023-01-15T10:42:43;95783.69;;;10.36;76.86
77003;BME280;65939;50.060;14.288;2023-01-15T10:47:13;95785.09;;;10.38;76.46
77003;BME280;65939;50.060;14.288;2023-01-15T10:49:16;95785.34;;;10.43;76.35
77003;BME280;65939;50.060;14.288;2023-01-15T10:51:22;95778.16;;;10.52;76.73
77003;BME280;65939;50.060;14.288;2023-01-15T10:55:44;95786.31;;;10.77;76.75
77003;BME280;65939;50.060;14.288;2023-01-15T10:57:55;95800.44;;;10.89;76.26
77003;BME280;65939;50.060;14.288;2023-01-15T11:00:01;95803.91;;;10.96;75.68
77003;BME280;65939;50.060;14.288;2023-01-15T11:04:18;95805.31;;;11.06;75.07
77003;BME280;65939;50.060;14.288;2023-01-15T11:06:21;95799.53;;;11.10;74.78
77003;BME280;65939;50.060;14.288;2023-01-15T11:08:24;95803.34;;;11.14;75.21
77003;BME280;65939;50.060;14.288;2023-01-15T11:10:31;95803.16;;;11.16;74.33
77003;BME280;65939;50.060;14.288;2023-01-15T11:12:34;95797.75;;;11.17;74.31
77003;BME280;65939;50.060;14.288;2023-01-15T11:14:53;95817.25;;;11.21;75.09
77003;BME280;65939;50.060;14.288;2023-01-15T11:17:13;95804.19;;;11.21;74.16
77003;BME280;65939;50.060;14.288;2023-01-15T11:19:36;95808.00;;;11.19;74.32
77003;BME280;65939;50.060;14.288;2023-01-15T11:21:42;95824.44;;;11.13;75.00
77003;BME280;65939;50.060;14.288;2023-01-15T11:23:44;95829.84;;;11.05;75.75
77003;BME280;65939;50.060;14.288;2023-01-15T11:25:57;95825.38;;;10.98;76.26
77003;BME280;65939;50.060;14.288;2023-01-15T11:28:04;95826.19;;;10.92;76.05
77003;BME280;65939;50.060;14.288;2023-01-15T11:30:23;95818.09;;;10.87;76.44
77003;BME280;65939;50.060;14.288;2023-01-15T11:32:31;95831.91;;;10.81;77.40
77003;BME280;65939;50.060;14.288;2023-01-15T11:34:35;95828.09;;;10.77;78.07
77003;BME280;65939;50.060;14.288;2023-01-15T11:36:38;95825.69;;;10.75;78.52
77003;BME280;65939;50.060;14.288;2023-01-15T11:38:45;95832.50;;;10.76;79.30
77003;BME280;65939;50.060;14.288;2023-01-15T11:41:00;95841.75;;;10.79;78.97
77003;BME280;65939;50.060;14.288;2023-01-15T11:43:00;95855.25;;;10.83;79.19
77003;BME280;65939;50.060;14.288;2023-01-15T11:45:21;95857.06;;;10.82;79.22